Banak, Lakselv Banak Airport (ENNA)

NameLakselv Banak Airport
CityBanak
CountryNorway
ICAOENNA
IATALKL
Altitude8 m
CoordinatesGoogle Map
Live Air TrafficLiveATC.net
METARENNA 150050Z AUTO 17012KT 9999 NCD M03/M07 Q1025 RMK WIND 1800FT 28017KT
2018-12-15 00:50:00 Wind: South-Southeast (170°) 6.17 m/s - Visibility: > 10000 m - Temperature: -3 °C - Dew point: -7 °C - Humidity: 74.2% - Pressure: 1025 hPa
Statistics

The table below shows the detailed information of all flights to/from Banak, Lakselv Banak Airport (ENNA).

Ident Aircraft Coming fromFrom Going toTo Owner nameOwnerDate
LN-LTA - BE20 - Lufttransport LTR523 RAYTHEON 200 Super King Air BE20 Banak, Norway (ENNA) ENNA
55 km
Tromso, Norway (ENTC) ENTC
291 km
Lufttransport A/s Lufttransport A/s Thu, 13 Dec 2018 14:01:05 +0000 13/12/2018 2:01 pm
LN-LTA - BE20 - Lufttransport LTR523 RAYTHEON 200 Super King Air BE20 Banak, Norway (ENNA) ENNA
141 km
Tromso, Norway (ENTC) ENTC
95 km
Lufttransport A/s Lufttransport A/s Wed, 12 Dec 2018 15:32:28 +0000 12/12/2018 3:32 pm
LN-LTA - BE20 - Lufttransport LTR523 RAYTHEON 200 Super King Air BE20 Banak, Norway (ENNA) ENNA
124 km
Tromso, Norway (ENTC) ENTC
359 km
Lufttransport A/s Lufttransport A/s Thu, 29 Nov 2018 11:20:54 +0000 29/11/2018 11:20 am
LN-NGY - B738 - Norwegian NAX8940 BOEING 737-800 B738 Banak, Norway (ENNA) ENNA
1284 km
Kirkenes, Norway (ENKR) ENKR
1384 km
Norwegian Norwegian Sun, 18 Nov 2018 16:26:55 +0000 18/11/2018 4:26 pm